Time;durP1;ratioP1;P1;durP2;ratioP2;P2;SDS_P1;SDS_P2;PMS_P1;PMS_P2;Temp;Humidity;BMP_temperature;BMP_pressure;BME280_temperature;BME280_humidity;BME280_pressure;Samples;Min_cycle;Max_cycle;Signal;HPM_P1;HPM_P2
2022/05/01 00:08:41;;;;;;;24.80;9.35;;;19.20;66.40;;;;;;20996352;28;20040;-61
2022/05/01 00:18:44;;;;;;;;;;;19.00;67.40;;;;;;20996763;28;20044;-60
2022/05/01 00:28:46;;;;;;;29.63;7.22;;;18.90;63.30;;;;;;20996951;28;19927;-61
2022/05/01 00:38:49;;;;;;;24.07;6.30;;;18.70;63.10;;;;;;20995712;28;20056;-62
2022/05/01 00:48:51;;;;;;;22.95;6.45;;;18.70;63.20;;;;;;20995797;28;20413;-65
2022/05/01 00:58:53;;;;;;;25.38;6.63;;;18.70;62.90;;;;;;20995331;28;20505;-62
2022/05/01 01:08:56;;;;;;;35.47;7.97;;;18.70;62.80;;;;;;20994873;28;20044;-61
2022/05/01 01:19:07;;;;;;;30.73;7.03;;;18.70;63.70;;;;;;21002508;28;20063;-61
2022/05/01 01:39:35;;;;;;;29.20;7.28;;;18.70;62.60;;;;;;21009585;28;20443;-61
2022/05/01 01:49:46;;;;;;;31.23;8.10;;;18.90;62.20;;;;;;21008750;28;20136;-61
2022/05/01 02:00:08;;;;;;;24.73;9.00;;;18.90;62.40;;;;;;21009407;28;20052;-60
2022/05/01 02:10:26;;;;;;;24.63;8.60;;;19.00;62.10;;;;;;21007068;28;20516;-60
2022/05/01 02:31:12;;;;;;;27.80;8.30;;;18.80;63.00;;;;;;21004972;28;20409;-61
2022/05/01 02:41:25;;;;;;;27.03;7.43;;;18.40;64.40;;;;;;21004464;28;20417;-60
2022/05/01 02:51:32;;;;;;;27.95;7.82;;;18.20;65.80;;;;;;21003480;28;20106;-62
2022/05/01 03:01:40;;;;;;;22.52;5.68;;;18.00;66.30;;;;;;21003319;28;20087;-60
2022/05/01 03:11:46;;;;;;;23.85;6.50;;;17.80;66.90;;;;;;21001526;28;20113;-59
2022/05/01 03:22:11;;;;;;;26.35;6.00;;;17.70;67.40;;;;;;21001803;28;20045;-60
2022/05/01 03:32:17;;;;;;;;;;;17.60;67.90;;;;;;21000497;28;20056;-60
2022/05/01 03:42:19;;;;;;;25.15;6.55;;;17.60;67.70;;;;;;20981354;28;19927;-66
2022/05/01 03:52:21;;;;;;;15.85;5.72;;;17.60;67.50;;;;;;20998888;28;20480;-67
2022/05/01 04:02:24;;;;;;;16.17;5.13;;;17.60;67.10;;;;;;20997552;28;20048;-60
2022/05/01 04:12:36;;;;;;;16.48;3.75;;;17.60;64.30;;;;;;20996456;28;20562;-62
2022/05/01 04:22:47;;;;;;;11.93;3.92;;;17.50;61.40;;;;;;20995773;28;20118;-59
2022/05/01 04:32:57;;;;;;;10.32;3.13;;;17.40;58.80;;;;;;20995824;28;20048;-60
2022/05/01 04:43:01;;;;;;;15.70;5.25;;;17.20;58.60;;;;;;20996123;28;20454;-61
2022/05/01 04:53:09;;;;;;;23.05;5.65;;;17.20;63.00;;;;;;21001817;28;20132;-60
2022/05/01 05:03:12;;;;;;;18.35;4.82;;;17.00;64.60;;;;;;20994056;28;20137;-60
2022/05/01 05:13:23;;;;;;;15.43;5.05;;;16.70;64.50;;;;;;21011343;28;20131;-61
2022/05/01 05:23:26;;;;;;;12.50;3.97;;;16.60;64.20;;;;;;21010845;28;20044;-61
2022/05/01 05:33:28;;;;;;;11.10;4.60;;;16.50;63.30;;;;;;21009494;28;20061;-60
2022/05/01 05:43:31;;;;;;;15.70;4.43;;;16.30;63.40;;;;;;21009371;28;20044;-61
2022/05/01 05:53:33;;;;;;;10.50;3.60;;;16.20;63.70;;;;;;21009064;28;20139;-61
2022/05/01 06:03:35;;;;;;;8.63;3.50;;;16.00;63.50;;;;;;21008006;28;20456;-59
2022/05/01 06:13:37;;;;;;;15.00;3.92;;;16.10;63.10;;;;;;21006658;28;20071;-63
2022/05/01 06:23:40;;;;;;;15.70;4.03;;;16.20;61.80;;;;;;21006350;28;20385;-62
2022/05/01 06:33:44;;;;;;;13.80;4.57;;;16.30;61.60;;;;;;21004752;28;20389;-63
2022/05/01 06:43:47;;;;;;;12.85;4.00;;;16.40;61.60;;;;;;21004835;28;20445;-63
2022/05/01 06:53:48;;;;;;;14.65;4.03;;;16.80;60.40;;;;;;21003776;28;20048;-62
2022/05/01 07:03:50;;;;;;;16.52;4.68;;;17.20;59.30;;;;;;21002592;28;20088;-64
2022/05/01 07:13:53;;;;;;;17.87;7.53;;;17.40;56.80;;;;;;21001257;28;20053;-66
2022/05/01 07:23:56;;;;;;;12.10;4.25;;;17.80;55.20;;;;;;21001713;28;20053;-61
2022/05/01 07:34:00;;;;;;;9.07;4.20;;;18.30;52.80;;;;;;21000333;28;20480;-62
2022/05/01 07:44:01;;;;;;;9.25;3.50;;;18.70;51.70;;;;;;20981129;28;20503;-61
2022/05/01 07:54:04;;;;;;;8.43;3.30;;;19.20;50.40;;;;;;20998570;28;20064;-60
2022/05/01 08:14:26;;;;;;;8.38;3.42;;;19.60;48.30;;;;;;20996876;28;20052;-65
2022/05/01 08:24:28;;;;;;;15.07;4.50;;;19.90;47.30;;;;;;20996444;28;20094;-67
2022/05/01 08:34:30;;;;;;;16.20;4.93;;;20.00;46.80;;;;;;20996365;28;20048;-65
2022/05/01 08:44:36;;;;;;;15.38;4.55;;;20.20;46.40;;;;;;20977159;28;20044;-61
2022/05/01 08:54:39;;;;;;;14.85;5.55;;;20.50;46.30;;;;;;20983068;28;20056;-62
2022/05/01 09:04:43;;;;;;;16.85;4.35;;;20.70;46.70;;;;;;20938646;28;20083;-65
2022/05/01 09:14:48;;;;;;;11.57;4.22;;;21.10;46.50;;;;;;20937664;28;20049;-61
2022/05/01 09:24:53;;;;;;;13.63;3.33;;;21.20;46.80;;;;;;20943625;28;20045;-64
2022/05/01 09:34:57;;;;;;;13.38;3.17;;;21.50;45.70;;;;;;20910605;28;20310;-62
2022/05/01 09:45:14;;;;;;;11.65;3.63;;;21.70;44.40;;;;;;20951723;28;20114;-64
2022/05/01 09:55:16;;;;;;;14.45;4.10;;;21.80;44.60;;;;;;21003615;28;20169;-60
2022/05/01 10:05:17;;;;;;;12.40;4.50;;;22.20;44.20;;;;;;21004729;28;20056;-63
2022/05/01 10:15:20;;;;;;;14.25;3.60;;;22.60;43.40;;;;;;21004262;28;20174;-60
2022/05/01 10:25:22;;;;;;;13.05;4.60;;;22.50;44.10;;;;;;21004554;28;20036;-62
2022/05/01 10:35:45;;;;;;;14.13;4.13;;;22.60;43.60;;;;;;20984297;28;20084;-61
2022/05/01 10:45:46;;;;;;;20.35;5.43;;;22.60;41.60;;;;;;21002041;28;20076;-62
2022/05/01 10:55:52;;;;;;;16.13;4.40;;;22.70;38.40;;;;;;20994878;28;20053;-66
2022/05/01 11:06:08;;;;;;;16.90;5.10;;;23.10;35.80;;;;;;20999384;28;20049;-63
2022/05/01 11:16:11;;;;;;;17.40;4.13;;;23.20;36.30;;;;;;20996045;28;20048;-63
2022/05/01 11:26:16;;;;;;;22.77;5.73;;;23.40;40.80;;;;;;20981568;28;20048;-64
2022/05/01 11:36:18;;;;;;;20.20;4.20;;;23.60;38.90;;;;;;20998213;28;20091;-64
2022/05/01 11:46:21;;;;;;;20.77;4.88;;;23.80;39.30;;;;;;20998454;28;20044;-63
2022/05/01 12:06:43;;;;;;;18.75;6.72;;;24.00;40.90;;;;;;20997202;28;20044;-62
2022/05/01 12:16:48;;;;;;;20.65;8.73;;;24.20;42.20;;;;;;20996261;28;20088;-63
2022/05/01 12:26:52;;;;;;;19.80;6.82;;;24.20;40.80;;;;;;20995643;28;20045;-68
2022/05/01 12:36:58;;;;;;;25.60;7.63;;;24.30;42.20;;;;;;20996237;28;20079;-63
2022/05/01 12:46:59;;;;;;;20.63;6.22;;;24.40;42.10;;;;;;20995733;28;20499;-64
2022/05/01 12:57:01;;;;;;;16.42;4.95;;;24.50;40.20;;;;;;20995421;28;20492;-62
2022/05/01 13:07:04;;;;;;;16.73;4.18;;;24.70;41.30;;;;;;20994325;28;20094;-70
2022/05/01 13:17:13;;;;;;;18.38;5.00;;;24.70;37.50;;;;;;21005484;28;20150;-63
2022/05/01 13:27:15;;;;;;;20.23;5.60;;;24.70;37.20;;;;;;21010349;28;20051;-62
2022/05/01 13:37:18;;;;;;;15.18;4.35;;;24.70;34.40;;;;;;21010494;28;20051;-63
2022/05/01 13:47:21;;;;;;;15.52;5.97;;;24.80;34.10;;;;;;21008618;28;20048;-63
2022/05/01 13:57:24;;;;;;;21.55;6.88;;;25.00;34.10;;;;;;21008604;28;20110;-62
2022/05/01 14:07:25;;;;;;;21.00;4.57;;;25.10;31.30;;;;;;21007762;28;20060;-66
2022/05/01 14:17:28;;;;;;;15.50;4.43;;;25.20;31.80;;;;;;21006428;28;20056;-65
2022/05/01 14:27:32;;;;;;;19.98;4.95;;;25.10;31.70;;;;;;20987173;28;20138;-62
2022/05/01 14:38:00;;;;;;;14.10;5.40;;;25.30;31.50;;;;;;21003903;28;20063;-65
2022/05/01 14:48:18;;;;;;;19.85;4.88;;;25.30;29.90;;;;;;20990492;28;20106;-65
2022/05/01 15:08:44;;;;;;;21.98;5.57;;;25.40;29.50;;;;;;21003003;28;20063;-63
2022/05/01 15:18:56;;;;;;;19.00;5.15;;;25.20;30.00;;;;;;21001068;28;20390;-65
2022/05/01 15:29:00;;;;;;;14.48;3.88;;;25.30;30.90;;;;;;21001686;28;20048;-63
2022/05/01 15:39:25;;;;;;;12.95;3.92;;;25.30;31.00;;;;;;20999663;28;20052;-63
2022/05/01 15:59:52;;;;;;;18.08;4.97;;;25.30;32.00;;;;;;21001782;28;20064;-63
2022/05/01 16:10:10;;;;;;;29.25;6.30;;;25.30;31.90;;;;;;20997045;28;20044;-63
2022/05/01 16:20:19;;;;;;;17.95;3.97;;;25.40;33.10;;;;;;20996997;28;20147;-66
2022/05/01 16:30:21;;;;;;;14.18;3.83;;;25.30;34.10;;;;;;20995973;28;20052;-65
2022/05/01 16:40:24;;;;;;;17.67;4.38;;;25.20;34.10;;;;;;20995773;28;20101;-72
2022/05/01 16:50:28;;;;;;;21.47;4.63;;;25.10;33.60;;;;;;20994756;28;20135;-68
2022/05/01 17:00:30;;;;;;;9.45;3.05;;;25.10;33.50;;;;;;20995418;28;20554;-70
2022/05/01 17:10:41;;;;;;;12.50;3.58;;;24.80;35.80;;;;;;20975577;28;20056;-71
2022/05/01 17:20:56;;;;;;;12.18;3.50;;;24.20;35.70;;;;;;20996374;28;20456;-72
2022/05/01 17:31:07;;;;;;;14.73;3.17;;;24.20;35.80;;;;;;20993207;28;20618;-74
2022/05/01 17:41:11;;;;;;;15.20;3.83;;;24.10;36.10;;;;;;20993789;28;20135;-63
2022/05/01 17:51:15;;;;;;;25.10;4.13;;;23.70;37.60;;;;;;20993835;28;20068;-63
2022/05/01 18:01:26;;;;;;;19.70;4.20;;;23.40;38.50;;;;;;21000064;28;20037;-63
2022/05/01 18:11:47;;;;;;;15.07;4.90;;;23.20;39.90;;;;;;21006865;28;20096;-62
2022/05/01 18:22:13;;;;;;;11.93;4.65;;;23.10;39.50;;;;;;21005733;28;20084;-62
2022/05/01 18:32:48;;;;;;;16.38;4.22;;;23.20;39.00;;;;;;20668162;28;20050;-62
2022/05/01 18:42:57;;;;;;;15.57;4.65;;;23.20;39.50;;;;;;20667792;28;20128;-62
2022/05/01 18:53:00;;;;;;;12.45;3.63;;;23.00;39.70;;;;;;20667164;28;20058;-63
2022/05/01 19:03:02;;;;;;;11.13;3.53;;;22.90;39.60;;;;;;20755235;28;20154;-65
2022/05/01 19:13:30;;;;;;;13.53;4.30;;;22.70;40.00;;;;;;21001463;28;20056;-62
2022/05/01 19:34:32;;;;;;;7.80;3.17;;;22.50;40.70;;;;;;20999253;28;20052;-68
2022/05/01 19:44:42;;;;;;;11.47;4.40;;;22.20;41.10;;;;;;20985840;28;20052;-72
2022/05/01 19:54:44;;;;;;;13.07;3.35;;;22.00;41.70;;;;;;20999985;28;20052;-67
2022/05/01 20:04:47;;;;;;;7.00;2.80;;;22.00;41.90;;;;;;20998200;28;20119;-64
2022/05/01 20:14:49;;;;;;;8.15;2.78;;;21.60;42.20;;;;;;20997079;28;20056;-62
2022/05/01 20:24:51;;;;;;;8.85;2.50;;;21.40;42.60;;;;;;20996884;28;20052;-64
2022/05/01 20:35:01;;;;;;;8.68;2.60;;;21.30;42.60;;;;;;20996203;28;20056;-64
2022/05/01 20:45:09;;;;;;;16.70;7.70;;;21.40;42.60;;;;;;20996634;28;20131;-64
2022/05/01 20:55:13;;;;;;;7.78;2.95;;;21.30;42.50;;;;;;20996186;28;20062;-62
2022/05/01 21:05:15;;;;;;;9.80;3.35;;;21.20;42.80;;;;;;20994801;28;20088;-63
2022/05/01 21:15:18;;;;;;;8.48;2.88;;;21.20;42.70;;;;;;20993761;28;20057;-64
2022/05/01 21:25:21;;;;;;;7.35;2.90;;;21.20;42.30;;;;;;20993721;28;20040;-70
2022/05/01 21:35:22;;;;;;;10.95;2.83;;;21.20;41.80;;;;;;21000319;28;20087;-68
2022/05/01 21:45:24;;;;;;;8.05;2.88;;;21.00;41.70;;;;;;20990412;28;20056;-63
2022/05/01 21:55:27;;;;;;;6.50;2.80;;;20.90;41.80;;;;;;21008537;28;20055;-65
2022/05/01 22:05:30;;;;;;;;;;;20.90;41.50;;;;;;21007840;28;20052;-64
2022/05/01 22:15:31;;;;;;;5.75;2.35;;;20.70;41.50;;;;;;21006360;28;19924;-65
2022/05/01 22:25:33;;;;;;;6.07;2.65;;;20.50;41.70;;;;;;21006782;28;20049;-63
2022/05/01 22:45:55;;;;;;;10.35;2.20;;;20.60;41.40;;;;;;21002550;28;20087;-62
2022/05/01 22:55:57;;;;;;;6.55;2.63;;;20.60;41.30;;;;;;21004311;28;20053;-64
2022/05/01 23:05:58;;;;;;;5.97;2.42;;;20.40;41.30;;;;;;21002623;28;20741;-65
2022/05/01 23:16:00;;;;;;;7.78;1.98;;;20.30;42.40;;;;;;21001366;28;20066;-67
2022/05/01 23:26:02;;;;;;;4.60;1.98;;;20.20;41.80;;;;;;21000833;28;20041;-64
2022/05/01 23:36:04;;;;;;;9.85;3.45;;;20.10;42.00;;;;;;20998396;28;20124;-71
2022/05/01 23:46:06;;;;;;;5.20;2.05;;;19.90;42.60;;;;;;20998995;28;20049;-66
2022/05/01 23:56:08;;;;;;;10.05;2.67;;;19.70;43.40;;;;;;20999451;28;20554;-63
